sensor_id;sensor_type;location;lat;lon;timestamp;temperature;humidity
25753;DHT22;13600;50.816;4.416;2023-07-08T00:00:45;21.60;99.90
25753;DHT22;13600;50.816;4.416;2023-07-08T00:03:14;21.60;99.90
25753;DHT22;13600;50.816;4.416;2023-07-08T00:05:40;21.50;99.90
25753;DHT22;13600;50.816;4.416;2023-07-08T00:08:11;21.40;99.90
25753;DHT22;13600;50.816;4.416;2023-07-08T00:10:37;21.30;99.90
25753;DHT22;13600;50.816;4.416;2023-07-08T00:13:02;21.40;99.90
25753;DHT22;13600;50.816;4.416;2023-07-08T00:15:30;21.40;99.90
25753;DHT22;13600;50.816;4.416;2023-07-08T00:18:00;21.40;99.90
25753;DHT22;13600;50.816;4.416;2023-07-08T00:20:47;21.40;99.90
25753;DHT22;13600;50.816;4.416;2023-07-08T00:23:13;21.30;99.90
25753;DHT22;13600;50.816;4.416;2023-07-08T00:25:39;21.30;99.90
25753;DHT22;13600;50.816;4.416;2023-07-08T00:28:16;21.30;99.90
25753;DHT22;13600;50.816;4.416;2023-07-08T00:30:42;21.30;99.90
25753;DHT22;13600;50.816;4.416;2023-07-08T00:33:08;21.30;99.90
25753;DHT22;13600;50.816;4.416;2023-07-08T00:35:36;21.20;99.90
25753;DHT22;13600;50.816;4.416;2023-07-08T00:38:15;21.20;99.90
25753;DHT22;13600;50.816;4.416;2023-07-08T00:41:06;21.10;99.90
25753;DHT22;13600;50.816;4.416;2023-07-08T00:43:53;21.20;99.90
25753;DHT22;13600;50.816;4.416;2023-07-08T00:51:32;21.30;99.90
25753;DHT22;13600;50.816;4.416;2023-07-08T00:53:59;21.20;99.90
25753;DHT22;13600;50.816;4.416;2023-07-08T00:59:06;21.00;99.90
25753;DHT22;13600;50.816;4.416;2023-07-08T01:01:39;21.10;99.90
25753;DHT22;13600;50.816;4.416;2023-07-08T01:04:12;21.10;99.90
25753;DHT22;13600;50.816;4.416;2023-07-08T01:06:43;21.10;99.90
25753;DHT22;13600;50.816;4.416;2023-07-08T01:09:12;21.00;99.90
25753;DHT22;13600;50.816;4.416;2023-07-08T01:11:40;21.10;99.90
25753;DHT22;13600;50.816;4.416;2023-07-08T01:14:09;21.10;99.90
25753;DHT22;13600;50.816;4.416;2023-07-08T01:16:36;21.10;99.90
25753;DHT22;13600;50.816;4.416;2023-07-08T01:19:03;21.00;99.90
25753;DHT22;13600;50.816;4.416;2023-07-08T01:23:58;21.00;99.90
25753;DHT22;13600;50.816;4.416;2023-07-08T01:26:25;20.90;99.90
25753;DHT22;13600;50.816;4.416;2023-07-08T01:28:55;21.00;99.90
25753;DHT22;13600;50.816;4.416;2023-07-08T01:31:22;20.90;99.90
25753;DHT22;13600;50.816;4.416;2023-07-08T01:33:48;20.70;99.90
25753;DHT22;13600;50.816;4.416;2023-07-08T01:36:14;20.50;99.90
25753;DHT22;13600;50.816;4.416;2023-07-08T01:38:41;20.50;99.90
25753;DHT22;13600;50.816;4.416;2023-07-08T01:41:11;20.40;99.90
25753;DHT22;13600;50.816;4.416;2023-07-08T01:43:38;20.40;99.90
25753;DHT22;13600;50.816;4.416;2023-07-08T01:46:04;20.50;99.90
25753;DHT22;13600;50.816;4.416;2023-07-08T01:48:38;20.50;99.90
25753;DHT22;13600;50.816;4.416;2023-07-08T01:51:06;20.50;99.90
25753;DHT22;13600;50.816;4.416;2023-07-08T01:53:37;20.50;99.90
25753;DHT22;13600;50.816;4.416;2023-07-08T01:56:04;20.40;99.90
25753;DHT22;13600;50.816;4.416;2023-07-08T01:58:30;20.40;99.90
25753;DHT22;13600;50.816;4.416;2023-07-08T02:00:56;20.40;99.90
25753;DHT22;13600;50.816;4.416;2023-07-08T02:03:22;20.30;99.90
25753;DHT22;13600;50.816;4.416;2023-07-08T02:05:48;20.30;99.90
25753;DHT22;13600;50.816;4.416;2023-07-08T02:08:13;20.30;99.90
25753;DHT22;13600;50.816;4.416;2023-07-08T02:10:40;20.40;99.90
25753;DHT22;13600;50.816;4.416;2023-07-08T02:13:06;20.40;99.90
25753;DHT22;13600;50.816;4.416;2023-07-08T02:15:32;20.50;99.90
25753;DHT22;13600;50.816;4.416;2023-07-08T02:17:58;20.40;99.90
25753;DHT22;13600;50.816;4.416;2023-07-08T02:20:24;20.30;99.90
25753;DHT22;13600;50.816;4.416;2023-07-08T02:22:49;20.20;99.90
25753;DHT22;13600;50.816;4.416;2023-07-08T02:25:15;20.00;99.90
25753;DHT22;13600;50.816;4.416;2023-07-08T02:27:42;20.00;99.90
25753;DHT22;13600;50.816;4.416;2023-07-08T02:30:09;19.90;99.90
25753;DHT22;13600;50.816;4.416;2023-07-08T02:32:35;19.90;99.90
25753;DHT22;13600;50.816;4.416;2023-07-08T02:35:04;19.90;99.90
25753;DHT22;13600;50.816;4.416;2023-07-08T02:37:30;20.00;99.90
25753;DHT22;13600;50.816;4.416;2023-07-08T02:39:56;20.00;99.90
25753;DHT22;13600;50.816;4.416;2023-07-08T02:42:22;20.10;99.90
25753;DHT22;13600;50.816;4.416;2023-07-08T02:44:47;20.10;99.90
25753;DHT22;13600;50.816;4.416;2023-07-08T02:47:13;20.10;99.90
25753;DHT22;13600;50.816;4.416;2023-07-08T02:49:39;20.00;99.90
25753;DHT22;13600;50.816;4.416;2023-07-08T02:52:04;20.10;99.90
25753;DHT22;13600;50.816;4.416;2023-07-08T02:54:30;20.10;99.90
25753;DHT22;13600;50.816;4.416;2023-07-08T02:56:56;20.10;99.90
25753;DHT22;13600;50.816;4.416;2023-07-08T02:59:21;20.00;99.90
25753;DHT22;13600;50.816;4.416;2023-07-08T03:01:47;20.20;99.90
25753;DHT22;13600;50.816;4.416;2023-07-08T03:04:13;20.30;99.90
25753;DHT22;13600;50.816;4.416;2023-07-08T03:06:43;20.30;99.90
25753;DHT22;13600;50.816;4.416;2023-07-08T03:09:09;20.40;99.90
25753;DHT22;13600;50.816;4.416;2023-07-08T03:11:35;20.30;99.90
25753;DHT22;13600;50.816;4.416;2023-07-08T03:14:02;20.30;99.90
25753;DHT22;13600;50.816;4.416;2023-07-08T03:16:28;20.50;99.90
25753;DHT22;13600;50.816;4.416;2023-07-08T03:18:53;20.50;99.90
25753;DHT22;13600;50.816;4.416;2023-07-08T03:21:19;20.40;99.90
25753;DHT22;13600;50.816;4.416;2023-07-08T03:23:45;20.30;99.90
25753;DHT22;13600;50.816;4.416;2023-07-08T03:26:16;20.30;99.90
25753;DHT22;13600;50.816;4.416;2023-07-08T03:28:42;20.30;99.90
25753;DHT22;13600;50.816;4.416;2023-07-08T03:31:09;20.30;99.90
25753;DHT22;13600;50.816;4.416;2023-07-08T03:33:35;20.30;99.90
25753;DHT22;13600;50.816;4.416;2023-07-08T03:36:02;20.20;99.90
25753;DHT22;13600;50.816;4.416;2023-07-08T03:38:28;20.20;99.90
25753;DHT22;13600;50.816;4.416;2023-07-08T03:40:54;20.00;99.90
25753;DHT22;13600;50.816;4.416;2023-07-08T03:43:20;19.90;99.90
25753;DHT22;13600;50.816;4.416;2023-07-08T03:45:46;19.90;99.90
25753;DHT22;13600;50.816;4.416;2023-07-08T03:48:12;19.90;99.90
25753;DHT22;13600;50.816;4.416;2023-07-08T03:50:38;19.90;99.90
25753;DHT22;13600;50.816;4.416;2023-07-08T03:53:04;19.90;99.90
25753;DHT22;13600;50.816;4.416;2023-07-08T03:55:30;19.80;99.90
25753;DHT22;13600;50.816;4.416;2023-07-08T03:57:56;19.90;99.90
25753;DHT22;13600;50.816;4.416;2023-07-08T04:00:22;19.90;99.90
25753;DHT22;13600;50.816;4.416;2023-07-08T04:02:48;19.90;99.90
25753;DHT22;13600;50.816;4.416;2023-07-08T04:05:19;20.00;99.90
25753;DHT22;13600;50.816;4.416;2023-07-08T04:07:46;20.00;99.90
25753;DHT22;13600;50.816;4.416;2023-07-08T04:10:12;19.90;99.90
25753;DHT22;13600;50.816;4.416;2023-07-08T04:12:38;19.90;99.90
25753;DHT22;13600;50.816;4.416;2023-07-08T04:15:07;19.80;99.90
25753;DHT22;13600;50.816;4.416;2023-07-08T04:17:40;19.70;99.90
25753;DHT22;13600;50.816;4.416;2023-07-08T04:20:08;19.60;99.90
25753;DHT22;13600;50.816;4.416;2023-07-08T04:22:36;19.60;99.90
25753;DHT22;13600;50.816;4.416;2023-07-08T04:25:03;19.80;99.90
25753;DHT22;13600;50.816;4.416;2023-07-08T04:27:29;20.00;99.90
25753;DHT22;13600;50.816;4.416;2023-07-08T04:29:54;20.20;99.90
25753;DHT22;13600;50.816;4.416;2023-07-08T04:32:20;20.20;99.90
25753;DHT22;13600;50.816;4.416;2023-07-08T04:34:50;20.30;99.90
25753;DHT22;13600;50.816;4.416;2023-07-08T04:37:16;20.40;99.90
25753;DHT22;13600;50.816;4.416;2023-07-08T04:39:42;20.10;99.90
25753;DHT22;13600;50.816;4.416;2023-07-08T04:42:08;20.00;99.90
25753;DHT22;13600;50.816;4.416;2023-07-08T04:44:34;20.00;99.90
25753;DHT22;13600;50.816;4.416;2023-07-08T04:47:03;20.00;99.90
25753;DHT22;13600;50.816;4.416;2023-07-08T04:49:29;20.20;99.90
25753;DHT22;13600;50.816;4.416;2023-07-08T04:51:57;20.30;99.90
25753;DHT22;13600;50.816;4.416;2023-07-08T04:54:24;20.20;99.90
25753;DHT22;13600;50.816;4.416;2023-07-08T04:56:51;20.20;99.90
25753;DHT22;13600;50.816;4.416;2023-07-08T04:59:20;20.10;99.90
25753;DHT22;13600;50.816;4.416;2023-07-08T05:01:46;20.10;99.90
25753;DHT22;13600;50.816;4.416;2023-07-08T05:04:14;20.20;99.90
25753;DHT22;13600;50.816;4.416;2023-07-08T05:06:40;20.30;99.90
25753;DHT22;13600;50.816;4.416;2023-07-08T05:09:06;20.30;99.90
25753;DHT22;13600;50.816;4.416;2023-07-08T05:11:33;20.30;99.90
25753;DHT22;13600;50.816;4.416;2023-07-08T05:14:00;20.50;99.90
25753;DHT22;13600;50.816;4.416;2023-07-08T05:16:26;20.50;99.90
25753;DHT22;13600;50.816;4.416;2023-07-08T05:18:52;20.60;99.90
25753;DHT22;13600;50.816;4.416;2023-07-08T05:21:19;20.60;99.90
25753;DHT22;13600;50.816;4.416;2023-07-08T05:23:45;20.70;99.90
25753;DHT22;13600;50.816;4.416;2023-07-08T05:26:11;20.80;99.90
25753;DHT22;13600;50.816;4.416;2023-07-08T05:28:37;20.80;99.90
25753;DHT22;13600;50.816;4.416;2023-07-08T05:31:03;20.90;99.90
25753;DHT22;13600;50.816;4.416;2023-07-08T05:33:30;20.80;99.90
25753;DHT22;13600;50.816;4.416;2023-07-08T05:35:58;20.90;99.90
25753;DHT22;13600;50.816;4.416;2023-07-08T05:38:24;21.00;99.90
25753;DHT22;13600;50.816;4.416;2023-07-08T05:40:51;21.10;99.90
25753;DHT22;13600;50.816;4.416;2023-07-08T05:43:19;21.20;99.90
25753;DHT22;13600;50.816;4.416;2023-07-08T05:45:45;21.30;99.90
25753;DHT22;13600;50.816;4.416;2023-07-08T05:48:12;21.40;99.90
25753;DHT22;13600;50.816;4.416;2023-07-08T05:50:39;21.30;99.90
25753;DHT22;13600;50.816;4.416;2023-07-08T05:53:05;21.50;99.90
25753;DHT22;13600;50.816;4.416;2023-07-08T05:55:32;21.50;99.90
25753;DHT22;13600;50.816;4.416;2023-07-08T05:57:57;21.60;99.90
25753;DHT22;13600;50.816;4.416;2023-07-08T06:00:23;21.70;99.90
25753;DHT22;13600;50.816;4.416;2023-07-08T06:02:49;21.80;99.90
25753;DHT22;13600;50.816;4.416;2023-07-08T06:05:14;22.00;99.90
25753;DHT22;13600;50.816;4.416;2023-07-08T06:07:40;22.00;99.90
25753;DHT22;13600;50.816;4.416;2023-07-08T06:10:06;22.10;99.90
25753;DHT22;13600;50.816;4.416;2023-07-08T06:12:32;22.20;99.90
25753;DHT22;13600;50.816;4.416;2023-07-08T06:14:58;22.20;99.90
25753;DHT22;13600;50.816;4.416;2023-07-08T06:17:24;22.30;99.90
25753;DHT22;13600;50.816;4.416;2023-07-08T06:19:50;22.40;99.90
25753;DHT22;13600;50.816;4.416;2023-07-08T06:22:16;22.60;99.90
25753;DHT22;13600;50.816;4.416;2023-07-08T06:24:41;22.70;99.90
25753;DHT22;13600;50.816;4.416;2023-07-08T06:27:07;22.70;99.90
25753;DHT22;13600;50.816;4.416;2023-07-08T06:29:34;22.90;99.90
25753;DHT22;13600;50.816;4.416;2023-07-08T06:32:00;23.00;99.90
25753;DHT22;13600;50.816;4.416;2023-07-08T06:34:26;23.00;99.90
25753;DHT22;13600;50.816;4.416;2023-07-08T06:36:51;23.20;99.90
25753;DHT22;13600;50.816;4.416;2023-07-08T06:39:18;23.20;99.90
25753;DHT22;13600;50.816;4.416;2023-07-08T06:41:44;23.20;99.90
25753;DHT22;13600;50.816;4.416;2023-07-08T06:44:10;23.30;99.90
25753;DHT22;13600;50.816;4.416;2023-07-08T06:46:35;23.40;99.90
25753;DHT22;13600;50.816;4.416;2023-07-08T06:49:01;23.70;99.90
25753;DHT22;13600;50.816;4.416;2023-07-08T06:51:27;23.80;99.90
25753;DHT22;13600;50.816;4.416;2023-07-08T06:53:53;24.10;99.90
25753;DHT22;13600;50.816;4.416;2023-07-08T06:56:19;24.00;99.90
25753;DHT22;13600;50.816;4.416;2023-07-08T06:58:45;23.90;99.90
25753;DHT22;13600;50.816;4.416;2023-07-08T07:01:10;24.10;99.90
25753;DHT22;13600;50.816;4.416;2023-07-08T07:03:36;24.30;99.90
25753;DHT22;13600;50.816;4.416;2023-07-08T07:06:02;24.30;99.90
25753;DHT22;13600;50.816;4.416;2023-07-08T07:08:28;24.30;99.90
25753;DHT22;13600;50.816;4.416;2023-07-08T07:10:54;24.30;99.90
25753;DHT22;13600;50.816;4.416;2023-07-08T07:13:19;24.40;99.90
25753;DHT22;13600;50.816;4.416;2023-07-08T07:15:47;24.70;99.90
25753;DHT22;13600;50.816;4.416;2023-07-08T07:18:13;25.00;99.90
25753;DHT22;13600;50.816;4.416;2023-07-08T07:20:46;25.10;99.90
25753;DHT22;13600;50.816;4.416;2023-07-08T07:23:11;25.20;99.90
25753;DHT22;13600;50.816;4.416;2023-07-08T07:25:37;25.20;99.90
25753;DHT22;13600;50.816;4.416;2023-07-08T07:28:03;25.30;99.90
25753;DHT22;13600;50.816;4.416;2023-07-08T07:30:29;25.50;99.90
25753;DHT22;13600;50.816;4.416;2023-07-08T07:32:59;25.90;99.90
25753;DHT22;13600;50.816;4.416;2023-07-08T07:35:25;27.50;99.90
25753;DHT22;13600;50.816;4.416;2023-07-08T07:37:51;30.30;99.90
25753;DHT22;13600;50.816;4.416;2023-07-08T07:40:17;32.70;97.50
25753;DHT22;13600;50.816;4.416;2023-07-08T07:42:44;34.50;91.50
25753;DHT22;13600;50.816;4.416;2023-07-08T07:45:10;35.90;82.60
25753;DHT22;13600;50.816;4.416;2023-07-08T07:47:36;36.60;76.40
25753;DHT22;13600;50.816;4.416;2023-07-08T07:50:03;37.20;75.00
25753;DHT22;13600;50.816;4.416;2023-07-08T07:52:29;37.90;69.20
25753;DHT22;13600;50.816;4.416;2023-07-08T07:54:55;38.80;69.10
25753;DHT22;13600;50.816;4.416;2023-07-08T07:57:22;38.60;64.50
25753;DHT22;13600;50.816;4.416;2023-07-08T07:59:48;38.30;64.20
25753;DHT22;13600;50.816;4.416;2023-07-08T08:02:15;38.20;63.50
25753;DHT22;13600;50.816;4.416;2023-07-08T08:04:40;38.70;63.30
25753;DHT22;13600;50.816;4.416;2023-07-08T08:07:06;39.20;62.80
25753;DHT22;13600;50.816;4.416;2023-07-08T08:09:32;40.10;59.40
25753;DHT22;13600;50.816;4.416;2023-07-08T08:11:58;40.70;56.50
25753;DHT22;13600;50.816;4.416;2023-07-08T08:14:23;41.30;55.90
25753;DHT22;13600;50.816;4.416;2023-07-08T08:16:49;41.50;53.40
25753;DHT22;13600;50.816;4.416;2023-07-08T08:19:15;41.90;53.00
25753;DHT22;13600;50.816;4.416;2023-07-08T08:21:41;42.10;54.30
25753;DHT22;13600;50.816;4.416;2023-07-08T08:24:06;42.00;53.00
25753;DHT22;13600;50.816;4.416;2023-07-08T08:26:32;41.20;51.80
25753;DHT22;13600;50.816;4.416;2023-07-08T08:28:58;40.80;52.80
25753;DHT22;13600;50.816;4.416;2023-07-08T08:31:24;41.40;52.90
25753;DHT22;13600;50.816;4.416;2023-07-08T08:33:51;42.00;52.30
25753;DHT22;13600;50.816;4.416;2023-07-08T08:36:17;42.60;50.90
25753;DHT22;13600;50.816;4.416;2023-07-08T08:38:43;43.30;51.00
25753;DHT22;13600;50.816;4.416;2023-07-08T08:41:12;42.50;50.40
25753;DHT22;13600;50.816;4.416;2023-07-08T08:43:39;42.20;51.10
25753;DHT22;13600;50.816;4.416;2023-07-08T08:51:46;42.50;51.50
25753;DHT22;13600;50.816;4.416;2023-07-08T08:54:12;43.40;50.00
25753;DHT22;13600;50.816;4.416;2023-07-08T08:59:54;44.40;47.70
25753;DHT22;13600;50.816;4.416;2023-07-08T09:05:13;44.80;46.80
25753;DHT22;13600;50.816;4.416;2023-07-08T09:10:45;45.60;44.90
25753;DHT22;13600;50.816;4.416;2023-07-08T09:13:18;46.50;45.00
25753;DHT22;13600;50.816;4.416;2023-07-08T09:15:49;47.00;44.90
25753;DHT22;13600;50.816;4.416;2023-07-08T09:18:27;47.30;43.50
25753;DHT22;13600;50.816;4.416;2023-07-08T09:20:56;47.40;43.20
25753;DHT22;13600;50.816;4.416;2023-07-08T09:23:30;47.50;42.30
25753;DHT22;13600;50.816;4.416;2023-07-08T09:26:13;48.00;42.00
25753;DHT22;13600;50.816;4.416;2023-07-08T09:28:44;48.50;41.20
25753;DHT22;13600;50.816;4.416;2023-07-08T09:31:26;48.50;40.70
25753;DHT22;13600;50.816;4.416;2023-07-08T09:34:11;48.90;41.30
25753;DHT22;13600;50.816;4.416;2023-07-08T09:36:46;48.20;41.20
25753;DHT22;13600;50.816;4.416;2023-07-08T09:39:17;48.50;41.10
25753;DHT22;13600;50.816;4.416;2023-07-08T09:41:45;48.30;41.20
25753;DHT22;13600;50.816;4.416;2023-07-08T09:44:27;48.40;41.40
25753;DHT22;13600;50.816;4.416;2023-07-08T09:46:57;48.40;41.50
25753;DHT22;13600;50.816;4.416;2023-07-08T09:49:34;48.80;41.00
25753;DHT22;13600;50.816;4.416;2023-07-08T09:52:01;49.20;39.60
25753;DHT22;13600;50.816;4.416;2023-07-08T09:54:27;49.00;39.40
25753;DHT22;13600;50.816;4.416;2023-07-08T09:57:00;49.80;38.50
25753;DHT22;13600;50.816;4.416;2023-07-08T09:59:36;50.00;38.70
25753;DHT22;13600;50.816;4.416;2023-07-08T10:04:59;49.20;39.50
25753;DHT22;13600;50.816;4.416;2023-07-08T10:07:29;48.90;39.30
25753;DHT22;13600;50.816;4.416;2023-07-08T10:09:58;49.10;39.10
25753;DHT22;13600;50.816;4.416;2023-07-08T10:12:24;49.00;39.30
25753;DHT22;13600;50.816;4.416;2023-07-08T10:14:59;48.40;39.10
25753;DHT22;13600;50.816;4.416;2023-07-08T10:17:26;48.50;39.10
25753;DHT22;13600;50.816;4.416;2023-07-08T10:19:52;48.60;39.50
25753;DHT22;13600;50.816;4.416;2023-07-08T10:22:42;48.90;38.80
25753;DHT22;13600;50.816;4.416;2023-07-08T10:28:01;49.60;39.90
25753;DHT22;13600;50.816;4.416;2023-07-08T10:30:32;49.50;38.70
25753;DHT22;13600;50.816;4.416;2023-07-08T10:40:59;49.70;37.90
25753;DHT22;13600;50.816;4.416;2023-07-08T10:49:28;51.50;38.10
25753;DHT22;13600;50.816;4.416;2023-07-08T11:00:38;50.70;38.10
25753;DHT22;13600;50.816;4.416;2023-07-08T11:05:50;51.10;38.30
25753;DHT22;13600;50.816;4.416;2023-07-08T11:08:47;50.90;38.00
25753;DHT22;13600;50.816;4.416;2023-07-08T11:11:54;51.20;36.90
25753;DHT22;13600;50.816;4.416;2023-07-08T11:14:29;51.20;35.90
25753;DHT22;13600;50.816;4.416;2023-07-08T11:17:07;51.20;37.10
25753;DHT22;13600;50.816;4.416;2023-07-08T11:19:42;51.10;36.50
25753;DHT22;13600;50.816;4.416;2023-07-08T11:22:12;51.10;36.00
25753;DHT22;13600;50.816;4.416;2023-07-08T11:24:46;51.20;37.00
25753;DHT22;13600;50.816;4.416;2023-07-08T11:29:45;50.90;36.40
25753;DHT22;13600;50.816;4.416;2023-07-08T11:32:15;51.00;36.50
25753;DHT22;13600;50.816;4.416;2023-07-08T11:34:43;50.90;37.40
25753;DHT22;13600;50.816;4.416;2023-07-08T11:37:12;51.00;36.90
25753;DHT22;13600;50.816;4.416;2023-07-08T11:39:39;50.60;36.50
25753;DHT22;13600;50.816;4.416;2023-07-08T11:42:16;50.50;36.70
25753;DHT22;13600;50.816;4.416;2023-07-08T11:44:54;49.80;37.40
25753;DHT22;13600;50.816;4.416;2023-07-08T11:47:39;49.50;37.30
25753;DHT22;13600;50.816;4.416;2023-07-08T11:50:29;49.40;38.00
25753;DHT22;13600;50.816;4.416;2023-07-08T11:59:09;50.70;37.30
25753;DHT22;13600;50.816;4.416;2023-07-08T12:01:47;49.80;37.60
25753;DHT22;13600;50.816;4.416;2023-07-08T12:04:34;49.90;37.60
25753;DHT22;13600;50.816;4.416;2023-07-08T12:07:30;49.80;37.30
25753;DHT22;13600;50.816;4.416;2023-07-08T12:10:09;48.90;37.50
25753;DHT22;13600;50.816;4.416;2023-07-08T12:12:40;48.40;38.50
25753;DHT22;13600;50.816;4.416;2023-07-08T12:15:24;48.90;37.80
25753;DHT22;13600;50.816;4.416;2023-07-08T12:17:52;49.60;37.70
25753;DHT22;13600;50.816;4.416;2023-07-08T12:20:25;49.80;38.30
25753;DHT22;13600;50.816;4.416;2023-07-08T12:22:52;50.60;37.60
25753;DHT22;13600;50.816;4.416;2023-07-08T12:25:21;51.00;36.80
25753;DHT22;13600;50.816;4.416;2023-07-08T12:27:47;50.70;37.40
25753;DHT22;13600;50.816;4.416;2023-07-08T12:30:14;48.70;37.70
25753;DHT22;13600;50.816;4.416;2023-07-08T12:32:41;46.70;39.30
25753;DHT22;13600;50.816;4.416;2023-07-08T12:35:23;45.00;41.40
25753;DHT22;13600;50.816;4.416;2023-07-08T12:37:54;43.30;42.60
25753;DHT22;13600;50.816;4.416;2023-07-08T12:40:22;42.00;43.70
25753;DHT22;13600;50.816;4.416;2023-07-08T12:42:49;40.90;45.60
25753;DHT22;13600;50.816;4.416;2023-07-08T12:45:17;39.90;47.30
25753;DHT22;13600;50.816;4.416;2023-07-08T12:47:44;39.10;49.00
25753;DHT22;13600;50.816;4.416;2023-07-08T12:50:11;37.00;56.00
25753;DHT22;13600;50.816;4.416;2023-07-08T12:52:37;35.50;63.00
25753;DHT22;13600;50.816;4.416;2023-07-08T12:55:03;34.50;64.40
25753;DHT22;13600;50.816;4.416;2023-07-08T12:57:29;33.30;65.70
25753;DHT22;13600;50.816;4.416;2023-07-08T12:59:55;32.80;65.80
25753;DHT22;13600;50.816;4.416;2023-07-08T13:02:21;32.00;71.10
25753;DHT22;13600;50.816;4.416;2023-07-08T13:04:53;31.10;79.90
25753;DHT22;13600;50.816;4.416;2023-07-08T13:07:33;29.90;86.20
25753;DHT22;13600;50.816;4.416;2023-07-08T13:10:00;29.70;93.60
25753;DHT22;13600;50.816;4.416;2023-07-08T13:12:26;29.60;96.70
25753;DHT22;13600;50.816;4.416;2023-07-08T13:14:54;29.70;98.70
25753;DHT22;13600;50.816;4.416;2023-07-08T13:17:22;30.00;99.90
25753;DHT22;13600;50.816;4.416;2023-07-08T13:19:48;30.50;99.90
25753;DHT22;13600;50.816;4.416;2023-07-08T13:22:19;31.00;99.20
25753;DHT22;13600;50.816;4.416;2023-07-08T13:24:45;31.90;97.90
25753;DHT22;13600;50.816;4.416;2023-07-08T13:27:29;32.50;95.20
25753;DHT22;13600;50.816;4.416;2023-07-08T13:29:56;32.80;93.60
25753;DHT22;13600;50.816;4.416;2023-07-08T13:32:29;32.70;93.50
25753;DHT22;13600;50.816;4.416;2023-07-08T13:34:56;32.50;91.10
25753;DHT22;13600;50.816;4.416;2023-07-08T13:37:21;32.50;91.20
25753;DHT22;13600;50.816;4.416;2023-07-08T13:39:52;32.40;91.30
25753;DHT22;13600;50.816;4.416;2023-07-08T13:42:19;32.50;88.10
25753;DHT22;13600;50.816;4.416;2023-07-08T13:44:46;32.70;90.20
25753;DHT22;13600;50.816;4.416;2023-07-08T13:47:23;33.00;87.20
25753;DHT22;13600;50.816;4.416;2023-07-08T13:49:59;33.20;85.70
25753;DHT22;13600;50.816;4.416;2023-07-08T13:52:25;33.70;84.00
25753;DHT22;13600;50.816;4.416;2023-07-08T13:54:53;34.00;82.70
25753;DHT22;13600;50.816;4.416;2023-07-08T13:57:24;34.10;75.90
25753;DHT22;13600;50.816;4.416;2023-07-08T13:59:54;34.30;76.80
25753;DHT22;13600;50.816;4.416;2023-07-08T14:02:22;34.50;76.20
25753;DHT22;13600;50.816;4.416;2023-07-08T14:04:49;35.20;76.10
25753;DHT22;13600;50.816;4.416;2023-07-08T14:07:20;35.90;74.10
25753;DHT22;13600;50.816;4.416;2023-07-08T14:09:48;36.20;72.10
25753;DHT22;13600;50.816;4.416;2023-07-08T14:12:14;37.90;66.20
25753;DHT22;13600;50.816;4.416;2023-07-08T14:14:40;39.90;62.00
25753;DHT22;13600;50.816;4.416;2023-07-08T14:17:08;41.00;57.60
25753;DHT22;13600;50.816;4.416;2023-07-08T14:19:35;41.50;55.30
25753;DHT22;13600;50.816;4.416;2023-07-08T14:22:27;41.10;53.50
25753;DHT22;13600;50.816;4.416;2023-07-08T14:24:52;41.20;55.00
25753;DHT22;13600;50.816;4.416;2023-07-08T14:27:18;41.30;53.50
25753;DHT22;13600;50.816;4.416;2023-07-08T14:29:47;41.50;53.20
25753;DHT22;13600;50.816;4.416;2023-07-08T14:32:23;41.40;53.60
25753;DHT22;13600;50.816;4.416;2023-07-08T14:34:54;40.20;55.00
25753;DHT22;13600;50.816;4.416;2023-07-08T14:37:20;41.20;55.90
25753;DHT22;13600;50.816;4.416;2023-07-08T14:39:46;41.70;55.50
25753;DHT22;13600;50.816;4.416;2023-07-08T14:42:14;42.60;53.60
25753;DHT22;13600;50.816;4.416;2023-07-08T14:44:43;43.00;51.90
25753;DHT22;13600;50.816;4.416;2023-07-08T14:47:15;43.40;51.40
25753;DHT22;13600;50.816;4.416;2023-07-08T14:49:42;43.60;51.50
25753;DHT22;13600;50.816;4.416;2023-07-08T14:52:08;43.70;51.30
25753;DHT22;13600;50.816;4.416;2023-07-08T14:54:34;44.10;50.70
25753;DHT22;13600;50.816;4.416;2023-07-08T14:57:01;43.90;49.70
25753;DHT22;13600;50.816;4.416;2023-07-08T14:59:30;43.60;49.00
25753;DHT22;13600;50.816;4.416;2023-07-08T15:01:58;43.10;49.80
25753;DHT22;13600;50.816;4.416;2023-07-08T15:04:24;42.60;50.50
25753;DHT22;13600;50.816;4.416;2023-07-08T15:06:52;41.70;52.10
25753;DHT22;13600;50.816;4.416;2023-07-08T15:09:18;40.80;52.70
25753;DHT22;13600;50.816;4.416;2023-07-08T15:11:45;39.80;54.50
25753;DHT22;13600;50.816;4.416;2023-07-08T15:14:20;38.90;57.30
25753;DHT22;13600;50.816;4.416;2023-07-08T15:16:46;38.10;59.70
25753;DHT22;13600;50.816;4.416;2023-07-08T15:19:12;37.60;60.70
25753;DHT22;13600;50.816;4.416;2023-07-08T15:21:39;37.20;60.10
25753;DHT22;13600;50.816;4.416;2023-07-08T15:24:09;36.90;59.50
25753;DHT22;13600;50.816;4.416;2023-07-08T15:26:40;36.70;60.30
25753;DHT22;13600;50.816;4.416;2023-07-08T15:29:12;36.40;59.80
25753;DHT22;13600;50.816;4.416;2023-07-08T15:31:39;36.10;59.20
25753;DHT22;13600;50.816;4.416;2023-07-08T15:34:15;35.80;59.10
25753;DHT22;13600;50.816;4.416;2023-07-08T15:36:42;35.60;57.70
25753;DHT22;13600;50.816;4.416;2023-07-08T15:39:08;35.40;59.10
25753;DHT22;13600;50.816;4.416;2023-07-08T15:41:35;35.30;61.20
25753;DHT22;13600;50.816;4.416;2023-07-08T15:44:01;35.30;61.10
25753;DHT22;13600;50.816;4.416;2023-07-08T15:46:35;35.10;61.90
25753;DHT22;13600;50.816;4.416;2023-07-08T15:49:04;35.20;64.20
25753;DHT22;13600;50.816;4.416;2023-07-08T15:51:37;35.20;64.70
25753;DHT22;13600;50.816;4.416;2023-07-08T15:54:02;35.20;65.60
25753;DHT22;13600;50.816;4.416;2023-07-08T15:56:28;35.00;66.30
25753;DHT22;13600;50.816;4.416;2023-07-08T15:58:54;35.20;66.50
25753;DHT22;13600;50.816;4.416;2023-07-08T16:01:22;35.20;65.00
25753;DHT22;13600;50.816;4.416;2023-07-08T16:03:49;35.20;66.10
25753;DHT22;13600;50.816;4.416;2023-07-08T16:06:16;35.30;66.50
25753;DHT22;13600;50.816;4.416;2023-07-08T16:08:42;35.00;66.90
25753;DHT22;13600;50.816;4.416;2023-07-08T16:11:14;35.00;67.80
25753;DHT22;13600;50.816;4.416;2023-07-08T16:13:41;34.90;68.70
25753;DHT22;13600;50.816;4.416;2023-07-08T16:16:10;34.80;69.80
25753;DHT22;13600;50.816;4.416;2023-07-08T16:18:36;34.80;69.40
25753;DHT22;13600;50.816;4.416;2023-07-08T16:21:03;34.70;70.70
25753;DHT22;13600;50.816;4.416;2023-07-08T16:23:29;34.70;71.50
25753;DHT22;13600;50.816;4.416;2023-07-08T16:25:55;34.60;71.80
25753;DHT22;13600;50.816;4.416;2023-07-08T16:31:16;34.30;72.10
25753;DHT22;13600;50.816;4.416;2023-07-08T16:33:42;34.50;73.70
25753;DHT22;13600;50.816;4.416;2023-07-08T16:36:20;34.20;72.40
25753;DHT22;13600;50.816;4.416;2023-07-08T16:38:46;34.10;73.40
25753;DHT22;13600;50.816;4.416;2023-07-08T16:41:18;34.20;73.30
25753;DHT22;13600;50.816;4.416;2023-07-08T16:43:43;34.10;73.90
25753;DHT22;13600;50.816;4.416;2023-07-08T16:46:10;34.20;72.30